sensor_id;sensor_type;location;lat;lon;timestamp;temperature;humidity
9915;DHT22;4996;48.746;9.174;2022-08-11T00:00:05;22.50;64.00
9915;DHT22;4996;48.746;9.174;2022-08-11T00:02:47;22.40;64.30
9915;DHT22;4996;48.746;9.174;2022-08-11T00:05:16;22.30;64.00
9915;DHT22;4996;48.746;9.174;2022-08-11T00:07:47;22.40;64.30
9915;DHT22;4996;48.746;9.174;2022-08-11T00:10:15;22.40;64.30
9915;DHT22;4996;48.746;9.174;2022-08-11T00:12:42;22.60;64.30
9915;DHT22;4996;48.746;9.174;2022-08-11T00:15:10;22.30;64.20
9915;DHT22;4996;48.746;9.174;2022-08-11T00:17:37;22.30;65.50
9915;DHT22;4996;48.746;9.174;2022-08-11T00:20:08;22.10;64.60
9915;DHT22;4996;48.746;9.174;2022-08-11T00:22:36;22.10;65.00
9915;DHT22;4996;48.746;9.174;2022-08-11T00:25:15;22.00;65.00
9915;DHT22;4996;48.746;9.174;2022-08-11T00:27:41;22.00;64.80
9915;DHT22;4996;48.746;9.174;2022-08-11T00:30:09;22.00;65.40
9915;DHT22;4996;48.746;9.174;2022-08-11T00:32:40;22.10;65.20
9915;DHT22;4996;48.746;9.174;2022-08-11T00:35:11;22.10;65.10
9915;DHT22;4996;48.746;9.174;2022-08-11T00:37:37;22.00;65.50
9915;DHT22;4996;48.746;9.174;2022-08-11T00:40:04;21.90;65.50
9915;DHT22;4996;48.746;9.174;2022-08-11T00:48:03;21.70;65.90
9915;DHT22;4996;48.746;9.174;2022-08-11T00:53:45;21.60;66.10
9915;DHT22;4996;48.746;9.174;2022-08-11T01:10:13;21.50;67.20
9915;DHT22;4996;48.746;9.174;2022-08-11T01:13:14;21.50;67.10
9915;DHT22;4996;48.746;9.174;2022-08-11T01:21:34;21.30;68.20
9915;DHT22;4996;48.746;9.174;2022-08-11T01:24:36;21.40;68.10
9915;DHT22;4996;48.746;9.174;2022-08-11T01:27:41;21.30;68.10
9915;DHT22;4996;48.746;9.174;2022-08-11T01:36:04;21.30;68.90
9915;DHT22;4996;48.746;9.174;2022-08-11T01:41:53;21.30;69.50
9915;DHT22;4996;48.746;9.174;2022-08-11T01:47:48;21.30;69.60
9915;DHT22;4996;48.746;9.174;2022-08-11T01:50:39;21.40;70.00
9915;DHT22;4996;48.746;9.174;2022-08-11T02:01:26;21.20;70.40
9915;DHT22;4996;48.746;9.174;2022-08-11T02:04:05;21.20;70.70
9915;DHT22;4996;48.746;9.174;2022-08-11T02:15:18;21.20;70.90
9915;DHT22;4996;48.746;9.174;2022-08-11T02:20:41;21.20;71.30
9915;DHT22;4996;48.746;9.174;2022-08-11T02:23:51;21.20;71.30
9915;DHT22;4996;48.746;9.174;2022-08-11T02:26:25;21.00;71.40
9915;DHT22;4996;48.746;9.174;2022-08-11T02:35:15;21.20;71.70
9915;DHT22;4996;48.746;9.174;2022-08-11T02:43:46;21.20;72.00
9915;DHT22;4996;48.746;9.174;2022-08-11T02:46:26;21.20;72.00
9915;DHT22;4996;48.746;9.174;2022-08-11T02:49:11;21.20;72.60
9915;DHT22;4996;48.746;9.174;2022-08-11T02:52:28;21.10;72.70
9915;DHT22;4996;48.746;9.174;2022-08-11T02:58:29;21.00;73.80
9915;DHT22;4996;48.746;9.174;2022-08-11T03:01:07;20.90;74.00
9915;DHT22;4996;48.746;9.174;2022-08-11T03:03:48;20.80;74.20
9915;DHT22;4996;48.746;9.174;2022-08-11T03:06:36;20.70;74.60
9915;DHT22;4996;48.746;9.174;2022-08-11T03:09:15;20.60;75.00
9915;DHT22;4996;48.746;9.174;2022-08-11T03:15:11;20.50;75.30
9915;DHT22;4996;48.746;9.174;2022-08-11T03:20:50;20.40;75.60
9915;DHT22;4996;48.746;9.174;2022-08-11T03:23:49;20.30;76.20
9915;DHT22;4996;48.746;9.174;2022-08-11T03:29:10;20.20;76.90
9915;DHT22;4996;48.746;9.174;2022-08-11T03:31:48;20.20;76.80
9915;DHT22;4996;48.746;9.174;2022-08-11T03:34:28;20.20;77.10
9915;DHT22;4996;48.746;9.174;2022-08-11T03:40:15;20.10;76.90
9915;DHT22;4996;48.746;9.174;2022-08-11T03:51:20;19.80;77.30
9915;DHT22;4996;48.746;9.174;2022-08-11T03:54:15;19.80;77.30
9915;DHT22;4996;48.746;9.174;2022-08-11T03:57:08;19.80;77.40
9915;DHT22;4996;48.746;9.174;2022-08-11T04:00:13;19.90;77.30
9915;DHT22;4996;48.746;9.174;2022-08-11T04:23:29;19.90;77.90
9915;DHT22;4996;48.746;9.174;2022-08-11T04:29:44;20.00;77.50
9915;DHT22;4996;48.746;9.174;2022-08-11T04:32:52;20.10;77.70
9915;DHT22;4996;48.746;9.174;2022-08-11T04:35:38;20.10;78.30
9915;DHT22;4996;48.746;9.174;2022-08-11T04:38:43;20.10;77.90
9915;DHT22;4996;48.746;9.174;2022-08-11T04:47:43;20.20;77.90
9915;DHT22;4996;48.746;9.174;2022-08-11T04:50:38;20.20;78.50
9915;DHT22;4996;48.746;9.174;2022-08-11T04:53:46;20.20;78.50
9915;DHT22;4996;48.746;9.174;2022-08-11T04:56:35;20.20;78.30
9915;DHT22;4996;48.746;9.174;2022-08-11T05:11:52;20.30;78.80
9915;DHT22;4996;48.746;9.174;2022-08-11T05:14:29;20.30;79.00
9915;DHT22;4996;48.746;9.174;2022-08-11T05:17:35;20.20;79.40
9915;DHT22;4996;48.746;9.174;2022-08-11T05:20:20;20.20;79.50
9915;DHT22;4996;48.746;9.174;2022-08-11T05:23:09;20.30;79.40
9915;DHT22;4996;48.746;9.174;2022-08-11T05:25:56;20.30;79.70
9915;DHT22;4996;48.746;9.174;2022-08-11T05:29:02;20.40;80.10
9915;DHT22;4996;48.746;9.174;2022-08-11T05:31:57;20.50;80.00
9915;DHT22;4996;48.746;9.174;2022-08-11T05:34:42;20.60;80.10
9915;DHT22;4996;48.746;9.174;2022-08-11T05:39:50;20.60;80.00
9915;DHT22;4996;48.746;9.174;2022-08-11T05:42:47;20.60;80.20
9915;DHT22;4996;48.746;9.174;2022-08-11T05:45:33;20.70;80.40
9915;DHT22;4996;48.746;9.174;2022-08-11T05:48:18;20.60;80.00
9915;DHT22;4996;48.746;9.174;2022-08-11T05:51:03;20.60;80.70
9915;DHT22;4996;48.746;9.174;2022-08-11T05:53:53;20.60;80.30
9915;DHT22;4996;48.746;9.174;2022-08-11T05:56:49;20.70;81.10
9915;DHT22;4996;48.746;9.174;2022-08-11T05:59:17;20.80;80.20
9915;DHT22;4996;48.746;9.174;2022-08-11T06:01:44;21.00;80.70
9915;DHT22;4996;48.746;9.174;2022-08-11T06:04:22;21.00;80.40
9915;DHT22;4996;48.746;9.174;2022-08-11T06:06:56;21.00;80.30
9915;DHT22;4996;48.746;9.174;2022-08-11T06:09:33;21.00;80.40
9915;DHT22;4996;48.746;9.174;2022-08-11T06:12:03;21.10;80.40
9915;DHT22;4996;48.746;9.174;2022-08-11T06:14:29;21.20;80.50
9915;DHT22;4996;48.746;9.174;2022-08-11T06:16:58;21.30;80.60
9915;DHT22;4996;48.746;9.174;2022-08-11T06:19:39;21.30;80.40
9915;DHT22;4996;48.746;9.174;2022-08-11T06:22:09;21.30;80.40
9915;DHT22;4996;48.746;9.174;2022-08-11T06:24:38;21.20;80.90
9915;DHT22;4996;48.746;9.174;2022-08-11T06:27:04;21.10;80.70
9915;DHT22;4996;48.746;9.174;2022-08-11T06:29:33;21.40;81.00
9915;DHT22;4996;48.746;9.174;2022-08-11T06:32:02;21.60;80.60
9915;DHT22;4996;48.746;9.174;2022-08-11T06:39:42;21.60;80.50
9915;DHT22;4996;48.746;9.174;2022-08-11T06:42:27;21.70;80.20
9915;DHT22;4996;48.746;9.174;2022-08-11T06:45:13;21.90;80.60
9915;DHT22;4996;48.746;9.174;2022-08-11T06:47:44;22.00;79.80
9915;DHT22;4996;48.746;9.174;2022-08-11T06:50:15;22.00;80.30
9915;DHT22;4996;48.746;9.174;2022-08-11T06:53:00;22.00;80.70
9915;DHT22;4996;48.746;9.174;2022-08-11T06:55:28;22.00;80.30
9915;DHT22;4996;48.746;9.174;2022-08-11T06:58:17;22.10;80.40
9915;DHT22;4996;48.746;9.174;2022-08-11T07:01:13;22.10;80.60
9915;DHT22;4996;48.746;9.174;2022-08-11T07:03:44;22.30;80.40
9915;DHT22;4996;48.746;9.174;2022-08-11T07:06:33;22.50;80.20
9915;DHT22;4996;48.746;9.174;2022-08-11T07:11:59;22.20;80.00
9915;DHT22;4996;48.746;9.174;2022-08-11T07:14:52;22.40;80.50
9915;DHT22;4996;48.746;9.174;2022-08-11T07:17:41;22.50;79.80
9915;DHT22;4996;48.746;9.174;2022-08-11T07:20:09;22.60;80.30
9915;DHT22;4996;48.746;9.174;2022-08-11T07:22:56;22.90;80.00
9915;DHT22;4996;48.746;9.174;2022-08-11T07:25:42;23.20;79.80
9915;DHT22;4996;48.746;9.174;2022-08-11T07:28:29;23.20;78.70
9915;DHT22;4996;48.746;9.174;2022-08-11T07:31:16;23.30;78.50
9915;DHT22;4996;48.746;9.174;2022-08-11T07:33:48;23.30;78.80
9915;DHT22;4996;48.746;9.174;2022-08-11T07:36:16;23.50;78.70
9915;DHT22;4996;48.746;9.174;2022-08-11T07:38:44;23.70;78.40
9915;DHT22;4996;48.746;9.174;2022-08-11T07:41:17;23.80;77.50
9915;DHT22;4996;48.746;9.174;2022-08-11T07:43:46;23.80;77.80
9915;DHT22;4996;48.746;9.174;2022-08-11T07:46:16;23.90;77.50
9915;DHT22;4996;48.746;9.174;2022-08-11T07:49:02;23.90;77.20
9915;DHT22;4996;48.746;9.174;2022-08-11T07:51:47;23.80;77.30
9915;DHT22;4996;48.746;9.174;2022-08-11T07:54:32;24.00;77.10
9915;DHT22;4996;48.746;9.174;2022-08-11T07:56:58;24.30;77.30
9915;DHT22;4996;48.746;9.174;2022-08-11T07:59:25;24.50;76.80
9915;DHT22;4996;48.746;9.174;2022-08-11T08:02:11;24.60;76.50
9915;DHT22;4996;48.746;9.174;2022-08-11T08:04:56;24.90;76.50
9915;DHT22;4996;48.746;9.174;2022-08-11T08:07:41;25.10;75.80
9915;DHT22;4996;48.746;9.174;2022-08-11T08:10:26;25.30;75.30
9915;DHT22;4996;48.746;9.174;2022-08-11T08:13:12;25.30;73.90
9915;DHT22;4996;48.746;9.174;2022-08-11T08:15:57;25.60;74.80
9915;DHT22;4996;48.746;9.174;2022-08-11T08:18:42;25.80;73.30
9915;DHT22;4996;48.746;9.174;2022-08-11T08:21:08;25.70;74.30
9915;DHT22;4996;48.746;9.174;2022-08-11T08:23:42;26.10;75.10
9915;DHT22;4996;48.746;9.174;2022-08-11T08:26:11;26.30;73.30
9915;DHT22;4996;48.746;9.174;2022-08-11T08:28:56;26.50;72.60
9915;DHT22;4996;48.746;9.174;2022-08-11T08:31:41;26.60;72.30
9915;DHT22;4996;48.746;9.174;2022-08-11T08:34:08;26.80;71.40
9915;DHT22;4996;48.746;9.174;2022-08-11T08:36:35;27.20;70.30
9915;DHT22;4996;48.746;9.174;2022-08-11T08:39:01;27.50;69.70
9915;DHT22;4996;48.746;9.174;2022-08-11T08:41:28;27.30;69.60
9915;DHT22;4996;48.746;9.174;2022-08-11T08:44:00;27.40;68.90
9915;DHT22;4996;48.746;9.174;2022-08-11T08:46:35;27.20;68.40
9915;DHT22;4996;48.746;9.174;2022-08-11T08:49:02;27.30;69.00
9915;DHT22;4996;48.746;9.174;2022-08-11T08:51:30;27.40;67.90
9915;DHT22;4996;48.746;9.174;2022-08-11T08:54:08;27.00;68.00
9915;DHT22;4996;48.746;9.174;2022-08-11T08:56:35;27.00;68.40
9915;DHT22;4996;48.746;9.174;2022-08-11T08:59:02;27.10;68.20
9915;DHT22;4996;48.746;9.174;2022-08-11T09:01:34;27.50;68.20
9915;DHT22;4996;48.746;9.174;2022-08-11T09:04:02;27.70;68.00
9915;DHT22;4996;48.746;9.174;2022-08-11T09:06:31;26.90;68.20
9915;DHT22;4996;48.746;9.174;2022-08-11T09:08:58;27.10;67.70
9915;DHT22;4996;48.746;9.174;2022-08-11T09:11:24;27.30;67.80
9915;DHT22;4996;48.746;9.174;2022-08-11T09:14:09;27.40;67.20
9915;DHT22;4996;48.746;9.174;2022-08-11T09:16:35;27.90;66.70
9915;DHT22;4996;48.746;9.174;2022-08-11T09:19:03;28.10;65.90
9915;DHT22;4996;48.746;9.174;2022-08-11T09:21:30;28.00;67.10
9915;DHT22;4996;48.746;9.174;2022-08-11T09:23:56;28.50;66.10
9915;DHT22;4996;48.746;9.174;2022-08-11T09:26:41;28.30;64.90
9915;DHT22;4996;48.746;9.174;2022-08-11T09:29:28;28.10;64.80
9915;DHT22;4996;48.746;9.174;2022-08-11T09:31:55;28.70;64.90
9915;DHT22;4996;48.746;9.174;2022-08-11T09:34:21;28.70;63.70
9915;DHT22;4996;48.746;9.174;2022-08-11T09:36:47;28.90;63.50
9915;DHT22;4996;48.746;9.174;2022-08-11T09:39:36;29.00;64.00
9915;DHT22;4996;48.746;9.174;2022-08-11T09:42:21;28.40;63.10
9915;DHT22;4996;48.746;9.174;2022-08-11T09:44:47;28.50;63.20
9915;DHT22;4996;48.746;9.174;2022-08-11T09:47:24;28.80;62.00
9915;DHT22;4996;48.746;9.174;2022-08-11T09:49:54;28.70;62.40
9915;DHT22;4996;48.746;9.174;2022-08-11T09:52:21;28.80;61.50
9915;DHT22;4996;48.746;9.174;2022-08-11T09:54:48;28.50;61.20
9915;DHT22;4996;48.746;9.174;2022-08-11T09:57:21;28.60;61.90
9915;DHT22;4996;48.746;9.174;2022-08-11T10:00:10;28.70;61.20
9915;DHT22;4996;48.746;9.174;2022-08-11T10:02:45;29.00;61.00
9915;DHT22;4996;48.746;9.174;2022-08-11T10:05:14;28.70;60.80
9915;DHT22;4996;48.746;9.174;2022-08-11T10:08:00;28.70;60.80
9915;DHT22;4996;48.746;9.174;2022-08-11T10:10:26;28.10;61.10
9915;DHT22;4996;48.746;9.174;2022-08-11T10:12:57;28.30;61.90
9915;DHT22;4996;48.746;9.174;2022-08-11T10:15:24;28.70;61.20
9915;DHT22;4996;48.746;9.174;2022-08-11T10:18:11;28.90;61.00
9915;DHT22;4996;48.746;9.174;2022-08-11T10:21:22;29.10;60.40
9915;DHT22;4996;48.746;9.174;2022-08-11T10:23:51;29.10;60.70
9915;DHT22;4996;48.746;9.174;2022-08-11T10:26:35;29.10;60.40
9915;DHT22;4996;48.746;9.174;2022-08-11T10:29:36;28.30;60.10
9915;DHT22;4996;48.746;9.174;2022-08-11T10:32:27;28.60;59.60
9915;DHT22;4996;48.746;9.174;2022-08-11T10:35:11;28.30;58.60
9915;DHT22;4996;48.746;9.174;2022-08-11T10:37:40;28.10;59.30
9915;DHT22;4996;48.746;9.174;2022-08-11T10:40:07;28.50;60.80
9915;DHT22;4996;48.746;9.174;2022-08-11T10:42:34;28.50;60.10
9915;DHT22;4996;48.746;9.174;2022-08-11T10:45:19;28.10;60.10
9915;DHT22;4996;48.746;9.174;2022-08-11T10:48:05;28.30;60.80
9915;DHT22;4996;48.746;9.174;2022-08-11T10:50:31;28.40;60.10
9915;DHT22;4996;48.746;9.174;2022-08-11T10:53:18;28.30;60.40
9915;DHT22;4996;48.746;9.174;2022-08-11T10:56:04;28.40;60.70
9915;DHT22;4996;48.746;9.174;2022-08-11T10:58:49;28.70;60.00
9915;DHT22;4996;48.746;9.174;2022-08-11T11:01:24;28.50;60.10
9915;DHT22;4996;48.746;9.174;2022-08-11T11:03:55;28.50;60.10
9915;DHT22;4996;48.746;9.174;2022-08-11T11:06:34;28.50;59.70
9915;DHT22;4996;48.746;9.174;2022-08-11T11:09:04;28.70;59.80
9915;DHT22;4996;48.746;9.174;2022-08-11T11:11:37;28.80;59.40
9915;DHT22;4996;48.746;9.174;2022-08-11T11:14:25;29.10;59.20
9915;DHT22;4996;48.746;9.174;2022-08-11T11:17:11;29.30;58.90
9915;DHT22;4996;48.746;9.174;2022-08-11T11:20:05;29.40;58.30
9915;DHT22;4996;48.746;9.174;2022-08-11T11:22:31;29.80;57.60
9915;DHT22;4996;48.746;9.174;2022-08-11T11:25:19;30.20;57.70
9915;DHT22;4996;48.746;9.174;2022-08-11T11:30:37;31.10;55.70
9915;DHT22;4996;48.746;9.174;2022-08-11T11:33:25;31.40;54.80
9915;DHT22;4996;48.746;9.174;2022-08-11T11:38:50;31.60;54.30
9915;DHT22;4996;48.746;9.174;2022-08-11T11:41:16;32.80;54.80
9915;DHT22;4996;48.746;9.174;2022-08-11T11:43:57;33.50;53.40
9915;DHT22;4996;48.746;9.174;2022-08-11T11:46:25;32.20;53.30
9915;DHT22;4996;48.746;9.174;2022-08-11T11:48:55;32.40;53.20
9915;DHT22;4996;48.746;9.174;2022-08-11T11:51:24;32.80;52.70
9915;DHT22;4996;48.746;9.174;2022-08-11T11:53:52;33.20;52.70
9915;DHT22;4996;48.746;9.174;2022-08-11T11:56:20;33.40;51.60
9915;DHT22;4996;48.746;9.174;2022-08-11T11:58:47;33.60;52.20
9915;DHT22;4996;48.746;9.174;2022-08-11T12:01:32;34.10;50.90
9915;DHT22;4996;48.746;9.174;2022-08-11T12:03:59;34.00;51.10
9915;DHT22;4996;48.746;9.174;2022-08-11T12:06:25;34.30;51.80
9915;DHT22;4996;48.746;9.174;2022-08-11T12:08:53;34.40;50.50
9915;DHT22;4996;48.746;9.174;2022-08-11T12:11:22;33.60;51.40
9915;DHT22;4996;48.746;9.174;2022-08-11T12:14:17;33.90;50.50
9915;DHT22;4996;48.746;9.174;2022-08-11T12:16:45;34.40;49.80
9915;DHT22;4996;48.746;9.174;2022-08-11T12:19:16;34.80;50.20
9915;DHT22;4996;48.746;9.174;2022-08-11T12:21:43;35.10;50.30
9915;DHT22;4996;48.746;9.174;2022-08-11T12:24:29;35.40;48.90
9915;DHT22;4996;48.746;9.174;2022-08-11T12:27:14;35.10;49.20
9915;DHT22;4996;48.746;9.174;2022-08-11T12:29:49;34.80;49.10
9915;DHT22;4996;48.746;9.174;2022-08-11T12:32:15;35.10;49.00
9915;DHT22;4996;48.746;9.174;2022-08-11T12:34:41;35.70;49.10
9915;DHT22;4996;48.746;9.174;2022-08-11T12:37:07;36.10;48.40
9915;DHT22;4996;48.746;9.174;2022-08-11T12:39:41;36.50;47.90
9915;DHT22;4996;48.746;9.174;2022-08-11T12:42:28;36.30;47.40
9915;DHT22;4996;48.746;9.174;2022-08-11T12:45:14;37.40;47.00
9915;DHT22;4996;48.746;9.174;2022-08-11T12:47:54;36.70;46.40
9915;DHT22;4996;48.746;9.174;2022-08-11T12:50:41;36.30;46.50
9915;DHT22;4996;48.746;9.174;2022-08-11T12:53:31;36.10;47.60
9915;DHT22;4996;48.746;9.174;2022-08-11T12:56:02;35.50;47.70
9915;DHT22;4996;48.746;9.174;2022-08-11T12:58:48;35.90;47.80
9915;DHT22;4996;48.746;9.174;2022-08-11T13:01:16;35.40;47.10
9915;DHT22;4996;48.746;9.174;2022-08-11T13:04:01;36.30;46.60
9915;DHT22;4996;48.746;9.174;2022-08-11T13:06:45;35.40;47.10
9915;DHT22;4996;48.746;9.174;2022-08-11T13:09:11;34.50;46.90
9915;DHT22;4996;48.746;9.174;2022-08-11T13:11:39;34.70;47.50
9915;DHT22;4996;48.746;9.174;2022-08-11T13:14:26;34.40;47.90
9915;DHT22;4996;48.746;9.174;2022-08-11T13:16:53;34.70;47.30
9915;DHT22;4996;48.746;9.174;2022-08-11T13:19:37;34.20;47.60
9915;DHT22;4996;48.746;9.174;2022-08-11T13:22:05;34.00;47.80
9915;DHT22;4996;48.746;9.174;2022-08-11T13:24:31;34.80;48.00
9915;DHT22;4996;48.746;9.174;2022-08-11T13:26:59;35.00;47.00
9915;DHT22;4996;48.746;9.174;2022-08-11T13:29:26;34.70;47.50
9915;DHT22;4996;48.746;9.174;2022-08-11T13:31:55;33.80;47.40
9915;DHT22;4996;48.746;9.174;2022-08-11T13:34:25;33.90;47.70
9915;DHT22;4996;48.746;9.174;2022-08-11T13:36:53;33.10;48.10
9915;DHT22;4996;48.746;9.174;2022-08-11T13:39:21;33.20;47.60
9915;DHT22;4996;48.746;9.174;2022-08-11T13:41:47;32.80;48.10
9915;DHT22;4996;48.746;9.174;2022-08-11T13:44:15;32.60;48.50
9915;DHT22;4996;48.746;9.174;2022-08-11T13:46:42;31.80;48.70
9915;DHT22;4996;48.746;9.174;2022-08-11T13:49:09;31.30;49.20
9915;DHT22;4996;48.746;9.174;2022-08-11T13:51:38;31.00;49.50
9915;DHT22;4996;48.746;9.174;2022-08-11T13:54:24;31.10;50.30
9915;DHT22;4996;48.746;9.174;2022-08-11T13:56:53;30.50;49.50
9915;DHT22;4996;48.746;9.174;2022-08-11T13:59:21;30.80;49.70
9915;DHT22;4996;48.746;9.174;2022-08-11T14:01:50;31.10;49.40
9915;DHT22;4996;48.746;9.174;2022-08-11T14:04:29;31.10;49.10
9915;DHT22;4996;48.746;9.174;2022-08-11T14:06:56;31.10;49.70
9915;DHT22;4996;48.746;9.174;2022-08-11T14:09:26;30.80;49.80
9915;DHT22;4996;48.746;9.174;2022-08-11T14:11:56;30.90;49.20
9915;DHT22;4996;48.746;9.174;2022-08-11T14:14:42;31.10;49.30
9915;DHT22;4996;48.746;9.174;2022-08-11T14:17:12;31.10;49.20
9915;DHT22;4996;48.746;9.174;2022-08-11T14:19:41;31.10;49.00
9915;DHT22;4996;48.746;9.174;2022-08-11T14:22:07;31.00;49.70
9915;DHT22;4996;48.746;9.174;2022-08-11T14:24:38;30.60;50.10
9915;DHT22;4996;48.746;9.174;2022-08-11T14:27:06;30.80;49.40
9915;DHT22;4996;48.746;9.174;2022-08-11T14:29:33;30.60;49.20
9915;DHT22;4996;48.746;9.174;2022-08-11T14:32:04;30.70;49.70
9915;DHT22;4996;48.746;9.174;2022-08-11T14:34:32;30.50;49.80
9915;DHT22;4996;48.746;9.174;2022-08-11T14:37:07;30.50;49.40
9915;DHT22;4996;48.746;9.174;2022-08-11T14:39:43;30.20;49.80
9915;DHT22;4996;48.746;9.174;2022-08-11T14:42:11;30.20;49.80
9915;DHT22;4996;48.746;9.174;2022-08-11T14:44:58;30.10;49.60
9915;DHT22;4996;48.746;9.174;2022-08-11T14:47:49;29.70;50.50
9915;DHT22;4996;48.746;9.174;2022-08-11T14:50:19;29.60;49.70
9915;DHT22;4996;48.746;9.174;2022-08-11T14:53:01;29.50;50.00
9915;DHT22;4996;48.746;9.174;2022-08-11T14:55:34;29.40;49.60
9915;DHT22;4996;48.746;9.174;2022-08-11T14:58:21;29.50;49.80
9915;DHT22;4996;48.746;9.174;2022-08-11T15:00:53;29.60;49.60
9915;DHT22;4996;48.746;9.174;2022-08-11T15:03:20;29.60;49.00
9915;DHT22;4996;48.746;9.174;2022-08-11T15:05:53;29.70;48.90
9915;DHT22;4996;48.746;9.174;2022-08-11T15:08:21;29.70;49.40
9915;DHT22;4996;48.746;9.174;2022-08-11T15:11:11;29.90;49.50
9915;DHT22;4996;48.746;9.174;2022-08-11T15:13:58;29.60;49.50
9915;DHT22;4996;48.746;9.174;2022-08-11T15:16:25;29.50;49.10
9915;DHT22;4996;48.746;9.174;2022-08-11T15:19:11;29.50;49.30
9915;DHT22;4996;48.746;9.174;2022-08-11T15:21:37;29.50;49.70
9915;DHT22;4996;48.746;9.174;2022-08-11T15:24:21;29.60;49.20
9915;DHT22;4996;48.746;9.174;2022-08-11T15:26:48;29.70;48.90
9915;DHT22;4996;48.746;9.174;2022-08-11T15:29:34;29.90;49.10
9915;DHT22;4996;48.746;9.174;2022-08-11T15:32:19;30.00;49.30
9915;DHT22;4996;48.746;9.174;2022-08-11T15:34:52;30.10;49.50
9915;DHT22;4996;48.746;9.174;2022-08-11T15:37:40;29.80;48.40
9915;DHT22;4996;48.746;9.174;2022-08-11T15:40:22;29.60;49.50
9915;DHT22;4996;48.746;9.174;2022-08-11T15:46:10;29.70;48.90
9915;DHT22;4996;48.746;9.174;2022-08-11T15:48:44;29.70;49.00
9915;DHT22;4996;48.746;9.174;2022-08-11T15:51:17;29.30;49.60
9915;DHT22;4996;48.746;9.174;2022-08-11T15:53:53;29.30;49.40
9915;DHT22;4996;48.746;9.174;2022-08-11T15:56:25;29.00;50.00
9915;DHT22;4996;48.746;9.174;2022-08-11T15:58:53;29.00;50.10
9915;DHT22;4996;48.746;9.174;2022-08-11T16:01:41;29.30;49.80
9915;DHT22;4996;48.746;9.174;2022-08-11T16:04:28;29.10;49.50
9915;DHT22;4996;48.746;9.174;2022-08-11T16:07:07;29.00;49.60
9915;DHT22;4996;48.746;9.174;2022-08-11T16:09:52;29.30;49.80
9915;DHT22;4996;48.746;9.174;2022-08-11T16:12:22;29.40;49.80
9915;DHT22;4996;48.746;9.174;2022-08-11T16:14:51;29.30;49.40
9915;DHT22;4996;48.746;9.174;2022-08-11T16:17:43;29.40;49.50
9915;DHT22;4996;48.746;9.174;2022-08-11T16:20:12;29.20;50.10
9915;DHT22;4996;48.746;9.174;2022-08-11T16:22:39;29.30;50.00
9915;DHT22;4996;48.746;9.174;2022-08-11T16:25:10;29.30;49.80
9915;DHT22;4996;48.746;9.174;2022-08-11T16:27:41;29.30;50.20
9915;DHT22;4996;48.746;9.174;2022-08-11T16:30:08;29.50;50.00
9915;DHT22;4996;48.746;9.174;2022-08-11T16:32:37;29.40;50.10
9915;DHT22;4996;48.746;9.174;2022-08-11T16:35:09;29.30;50.20
9915;DHT22;4996;48.746;9.174;2022-08-11T16:37:54;29.30;50.60
9915;DHT22;4996;48.746;9.174;2022-08-11T16:40:42;29.40;50.40
9915;DHT22;4996;48.746;9.174;2022-08-11T16:43:11;29.40;50.00
9915;DHT22;4996;48.746;9.174;2022-08-11T16:45:56;29.30;50.10
9915;DHT22;4996;48.746;9.174;2022-08-11T16:49:01;29.00;50.20
9915;DHT22;4996;48.746;9.174;2022-08-11T16:51:27;29.20;50.20
9915;DHT22;4996;48.746;9.174;2022-08-11T16:53:53;29.00;50.20
9915;DHT22;4996;48.746;9.174;2022-08-11T16:56:22;29.20;50.80
9915;DHT22;4996;48.746;9.174;2022-08-11T16:58:52;29.30;50.60
9915;DHT22;4996;48.746;9.174;2022-08-11T17:01:37;29.30;50.10
9915;DHT22;4996;48.746;9.174;2022-08-11T17:04:11;29.20;50.40
9915;DHT22;4996;48.746;9.174;2022-08-11T17:07:04;29.20;50.30
9915;DHT22;4996;48.746;9.174;2022-08-11T17:09:49;28.90;50.20
9915;DHT22;4996;48.746;9.174;2022-08-11T17:12:35;28.80;49.80
9915;DHT22;4996;48.746;9.174;2022-08-11T17:15:21;28.80;50.00
9915;DHT22;4996;48.746;9.174;2022-08-11T17:18:06;28.90;50.00
9915;DHT22;4996;48.746;9.174;2022-08-11T17:20:35;28.80;50.00
9915;DHT22;4996;48.746;9.174;2022-08-11T17:23:03;28.70;50.20
9915;DHT22;4996;48.746;9.174;2022-08-11T17:25:49;28.70;50.10
9915;DHT22;4996;48.746;9.174;2022-08-11T17:28:17;28.80;50.70
9915;DHT22;4996;48.746;9.174;2022-08-11T17:30:44;28.80;50.30
9915;DHT22;4996;48.746;9.174;2022-08-11T17:33:30;28.70;50.20
9915;DHT22;4996;48.746;9.174;2022-08-11T17:36:15;28.70;50.90
9915;DHT22;4996;48.746;9.174;2022-08-11T17:38:42;28.60;50.40
9915;DHT22;4996;48.746;9.174;2022-08-11T17:41:09;28.40;50.60
9915;DHT22;4996;48.746;9.174;2022-08-11T17:43:53;28.50;50.90
9915;DHT22;4996;48.746;9.174;2022-08-11T17:46:40;28.50;50.60
9915;DHT22;4996;48.746;9.174;2022-08-11T17:49:25;28.50;50.60
9915;DHT22;4996;48.746;9.174;2022-08-11T17:51:53;28.50;50.80
9915;DHT22;4996;48.746;9.174;2022-08-11T17:54:38;28.40;50.80
9915;DHT22;4996;48.746;9.174;2022-08-11T17:57:25;28.40;50.70
9915;DHT22;4996;48.746;9.174;2022-08-11T18:00:11;28.30;51.40
9915;DHT22;4996;48.746;9.174;2022-08-11T18:02:43;28.30;51.10
9915;DHT22;4996;48.746;9.174;2022-08-11T18:05:30;28.30;51.30
9915;DHT22;4996;48.746;9.174;2022-08-11T18:07:58;28.30;51.00
9915;DHT22;4996;48.746;9.174;2022-08-11T18:10:44;28.20;51.40
9915;DHT22;4996;48.746;9.174;2022-08-11T18:13:30;28.20;51.30
9915;DHT22;4996;48.746;9.174;2022-08-11T18:16:17;28.10;51.60
9915;DHT22;4996;48.746;9.174;2022-08-11T18:19:03;28.10;51.30
9915;DHT22;4996;48.746;9.174;2022-08-11T18:21:50;28.00;51.90
9915;DHT22;4996;48.746;9.174;2022-08-11T18:24:42;27.90;51.90
9915;DHT22;4996;48.746;9.174;2022-08-11T18:27:31;27.90;51.80
9915;DHT22;4996;48.746;9.174;2022-08-11T18:30:16;27.70;52.00
9915;DHT22;4996;48.746;9.174;2022-08-11T18:33:02;27.60;51.90
9915;DHT22;4996;48.746;9.174;2022-08-11T18:35:52;27.50;52.10
9915;DHT22;4996;48.746;9.174;2022-08-11T18:38:39;27.50;52.30
9915;DHT22;4996;48.746;9.174;2022-08-11T18:41:26;27.40;52.30
9915;DHT22;4996;48.746;9.174;2022-08-11T18:44:13;27.30;52.60
9915;DHT22;4996;48.746;9.174;2022-08-11T18:47:03;27.20;52.70
9915;DHT22;4996;48.746;9.174;2022-08-11T18:49:50;27.10;53.10
9915;DHT22;4996;48.746;9.174;2022-08-11T18:52:36;27.00;54.40
9915;DHT22;4996;48.746;9.174;2022-08-11T18:55:20;26.90;54.90
9915;DHT22;4996;48.746;9.174;2022-08-11T18:58:08;26.80;55.10
9915;DHT22;4996;48.746;9.174;2022-08-11T19:00:57;26.70;55.00
9915;DHT22;4996;48.746;9.174;2022-08-11T19:03:44;26.60;54.80
9915;DHT22;4996;48.746;9.174;2022-08-11T19:06:28;26.50;54.80
9915;DHT22;4996;48.746;9.174;2022-08-11T19:09:16;26.30;54.90
9915;DHT22;4996;48.746;9.174;2022-08-11T19:12:02;26.30;55.20
9915;DHT22;4996;48.746;9.174;2022-08-11T19:14:48;26.20;56.00
9915;DHT22;4996;48.746;9.174;2022-08-11T19:17:35;26.10;56.00
9915;DHT22;4996;48.746;9.174;2022-08-11T19:20:24;26.00;56.40
9915;DHT22;4996;48.746;9.174;2022-08-11T19:23:11;25.90;55.90
9915;DHT22;4996;48.746;9.174;2022-08-11T19:25:59;25.90;55.70
9915;DHT22;4996;48.746;9.174;2022-08-11T19:28:45;25.80;55.60
9915;DHT22;4996;48.746;9.174;2022-08-11T19:31:31;25.70;55.60
9915;DHT22;4996;48.746;9.174;2022-08-11T19:34:18;25.70;55.60
9915;DHT22;4996;48.746;9.174;2022-08-11T19:37:06;25.60;56.50
9915;DHT22;4996;48.746;9.174;2022-08-11T19:40:03;25.60;55.70
9915;DHT22;4996;48.746;9.174;2022-08-11T19:42:49;25.60;55.10
9915;DHT22;4996;48.746;9.174;2022-08-11T19:45:34;25.60;55.40
9915;DHT22;4996;48.746;9.174;2022-08-11T19:48:21;25.50;55.40
9915;DHT22;4996;48.746;9.174;2022-08-11T19:51:06;25.50;55.80